createdAt,value
2022-10-11T00:03:52.169Z,11.09
2022-10-11T00:14:19.843Z,11.35
2022-10-11T00:24:47.474Z,11.77
2022-10-11T00:35:15.093Z,11.98
2022-10-11T00:46:28.150Z,12.21
2022-10-11T00:57:01.620Z,12.27
2022-10-11T01:07:31.525Z,12.32
2022-10-11T01:18:05.432Z,12.24
2022-10-11T01:28:50.315Z,12.10
2022-10-11T01:39:27.098Z,12.27
2022-10-11T01:49:59.205Z,12.39
2022-10-11T02:00:30.453Z,12.50
2022-10-11T02:11:03.604Z,12.39
2022-10-11T02:21:34.669Z,12.30
2022-10-11T02:32:03.026Z,12.14
2022-10-11T02:42:37.845Z,12.08
2022-10-11T02:53:05.775Z,12.08
2022-10-11T03:03:33.317Z,11.92
2022-10-11T03:14:00.827Z,11.77
2022-10-11T03:24:28.405Z,11.90
2022-10-11T03:34:55.989Z,12.08
2022-10-11T03:45:23.682Z,12.18
2022-10-11T03:55:55.417Z,12.41
2022-10-11T04:06:22.994Z,12.63
2022-10-11T04:16:50.529Z,12.74
2022-10-11T04:27:18.141Z,12.83
2022-10-11T04:37:45.818Z,12.56
2022-10-11T04:48:14.134Z,12.07
2022-10-11T04:58:42.457Z,12.08
2022-10-11T05:09:10.106Z,12.24
2022-10-11T05:19:37.722Z,12.57
2022-10-11T05:30:06.217Z,12.74
2022-10-11T05:40:33.782Z,12.84
2022-10-11T05:51:06.039Z,12.92
2022-10-11T06:01:33.802Z,12.96
2022-10-11T06:12:01.709Z,13.10
2022-10-11T06:22:29.835Z,13.15
2022-10-11T06:33:00.037Z,13.28
2022-10-11T06:43:31.620Z,13.34
2022-10-11T06:54:02.076Z,13.29
2022-10-11T07:04:30.192Z,13.34
2022-10-11T07:14:56.226Z,13.39
2022-10-11T07:25:23.817Z,13.27
2022-10-11T07:35:52.058Z,13.30
2022-10-11T07:46:20.169Z,13.25
2022-10-11T07:56:47.896Z,13.48
2022-10-11T08:07:15.582Z,13.83
2022-10-11T08:17:43.439Z,14.01
2022-10-11T08:28:15.860Z,14.12
2022-10-11T08:38:44.002Z,14.16
2022-10-11T08:49:15.084Z,14.02
2022-10-11T08:59:49.755Z,13.95
2022-10-11T09:10:45.637Z,13.88
2022-10-11T09:21:22.240Z,13.80
2022-10-11T09:31:54.273Z,13.69
2022-10-11T09:42:21.914Z,13.52
2022-10-11T09:52:54.093Z,13.49
2022-10-11T10:03:31.930Z,13.48
2022-10-11T10:13:59.809Z,13.46
2022-10-11T10:24:39.433Z,13.43
2022-10-11T10:35:14.690Z,13.39
2022-10-11T10:45:58.519Z,13.39
2022-10-11T10:56:34.714Z,13.34
2022-10-11T11:07:14.521Z,13.35
2022-10-11T11:17:56.693Z,13.42
2022-10-11T11:28:42.565Z,13.54
2022-10-11T11:39:18.142Z,13.58
2022-10-11T11:49:48.997Z,13.67
2022-10-11T12:00:21.648Z,13.78
2022-10-11T12:11:01.600Z,13.89
2022-10-11T12:21:33.547Z,14.05
2022-10-11T12:32:50.361Z,14.30
2022-10-11T12:43:33.776Z,14.40
2022-10-11T12:54:27.528Z,14.54
2022-10-11T13:05:16.700Z,14.58
2022-10-11T13:15:45.777Z,14.50
2022-10-11T13:26:14.258Z,14.54
2022-10-11T13:36:42.421Z,14.63
2022-10-11T13:47:14.461Z,14.63
2022-10-11T13:57:46.007Z,14.67
2022-10-11T14:08:26.148Z,14.66
2022-10-11T14:19:03.417Z,14.65
2022-10-11T14:29:33.001Z,14.66
2022-10-11T14:40:01.120Z,14.68
2022-10-11T14:50:41.694Z,14.65
2022-10-11T15:01:11.457Z,14.58
2022-10-11T15:11:40.263Z,14.46
2022-10-11T15:22:07.797Z,14.30
2022-10-11T15:32:35.327Z,14.26
2022-10-11T15:43:03.609Z,14.13
2022-10-11T15:53:32.411Z,14.21
2022-10-11T16:04:00.000Z,14.25
2022-10-11T16:14:27.731Z,14.10
2022-10-11T16:24:55.781Z,13.97
2022-10-11T16:35:21.801Z,13.84
2022-10-11T16:45:49.462Z,13.55
2022-10-11T16:56:18.118Z,13.35
2022-10-11T17:06:45.989Z,13.06
2022-10-11T17:17:14.254Z,12.79
2022-10-11T17:27:41.845Z,12.65
2022-10-11T17:38:09.419Z,12.34
2022-10-11T17:48:36.902Z,12.24
2022-10-11T17:59:04.529Z,12.03
2022-10-11T18:09:32.660Z,11.69
2022-10-11T18:19:58.605Z,11.43
2022-10-11T18:30:26.362Z,11.12
2022-10-11T18:40:53.906Z,10.93
2022-10-11T18:51:23.616Z,10.84
2022-10-11T19:01:52.715Z,10.68
2022-10-11T19:12:20.858Z,10.45
2022-10-11T19:22:48.844Z,10.09
2022-10-11T19:33:16.459Z,9.88
2022-10-11T19:43:44.458Z,9.76
2022-10-11T19:54:14.879Z,9.53
2022-10-11T20:04:57.770Z,9.41
2022-10-11T20:15:25.342Z,9.37
2022-10-11T20:26:01.629Z,9.36
2022-10-11T20:36:30.612Z,9.22
2022-10-11T20:47:03.030Z,8.96
2022-10-11T20:57:32.982Z,8.82
2022-10-11T21:08:00.968Z,8.63
2022-10-11T21:18:28.590Z,8.36
2022-10-11T21:28:56.462Z,8.07
2022-10-11T21:39:24.345Z,8.05
2022-10-11T21:49:51.922Z,8.07
2022-10-11T22:00:19.432Z,7.90
2022-10-11T22:10:53.850Z,7.85
2022-10-11T22:21:23.319Z,7.86
2022-10-11T22:31:50.828Z,7.91
2022-10-11T22:42:18.398Z,7.75
2022-10-11T22:52:45.959Z,7.76
2022-10-11T23:03:17.568Z,7.64
2022-10-11T23:13:45.225Z,7.59
2022-10-11T23:24:12.986Z,7.51
2022-10-11T23:34:40.574Z,7.44
2022-10-11T23:45:09.776Z,7.44
2022-10-11T23:55:37.455Z,7.25
